METAR Data
IDs: Format: Raw Decoded Include TAF

Data at: 0722 UTC 01 Aug 2021

LOWG 010650Z 10004KT 070V130 9999 VCTS FEW025 BKN035 FEW040CB 20/17 Q1007 TEMPO TSRA